San Diego, California
Traffic Map
Current Weather Conditions
San Diego, California
Few Clouds
Few Clouds
77°
Feels Like: 79°
Wind Chill: 77° Ceiling: Unl
Heat Index: 79° Visibility: 10mi
Dew Point: 65° Wind: 9mph
Humidity: 66% Direction: 310° (NW)
Pressure: 29.88in Gusts: 0mph
Raw Report DataKSAN 232351Z 31008KT 10SM FEW010 25/18 A2988 RMK AO2 SLP119 T02500183 10256 20222 56018
Traffic Incident Summary
Active as of:
Severity:
Category:
InformationThere was an issue retrieving the traffic information for this location. Please try a different location or try again shortly.
Advertisements
Track Severe Weather on mobile